sensor_id;sensor_type;location;lat;lon;timestamp;P1;durP1;ratioP1;P2;durP2;ratioP2
21721;SDS011;11023;48.274;7.794;2023-09-12T00:02:15;4.95;;;3.35;;
21721;SDS011;11023;48.274;7.794;2023-09-12T00:04:43;5.50;;;3.28;;
21721;SDS011;11023;48.274;7.794;2023-09-12T00:07:08;10.40;;;3.83;;
21721;SDS011;11023;48.274;7.794;2023-09-12T00:09:34;8.18;;;3.15;;
21721;SDS011;11023;48.274;7.794;2023-09-12T00:12:00;6.95;;;3.80;;
21721;SDS011;11023;48.274;7.794;2023-09-12T00:14:27;11.35;;;4.05;;
21721;SDS011;11023;48.274;7.794;2023-09-12T00:16:52;5.03;;;3.20;;
21721;SDS011;11023;48.274;7.794;2023-09-12T00:19:20;8.43;;;3.72;;
21721;SDS011;11023;48.274;7.794;2023-09-12T00:21:46;8.75;;;3.33;;
21721;SDS011;11023;48.274;7.794;2023-09-12T00:24:11;6.13;;;4.05;;
21721;SDS011;11023;48.274;7.794;2023-09-12T00:26:37;7.10;;;3.40;;
21721;SDS011;11023;48.274;7.794;2023-09-12T00:29:03;8.23;;;3.50;;
21721;SDS011;11023;48.274;7.794;2023-09-12T00:31:28;7.60;;;3.70;;
21721;SDS011;11023;48.274;7.794;2023-09-12T00:33:54;6.57;;;3.25;;
21721;SDS011;11023;48.274;7.794;2023-09-12T00:36:19;6.82;;;3.50;;
21721;SDS011;11023;48.274;7.794;2023-09-12T00:38:45;7.30;;;3.03;;
21721;SDS011;11023;48.274;7.794;2023-09-12T00:41:11;5.75;;;3.58;;
21721;SDS011;11023;48.274;7.794;2023-09-12T00:43:36;5.80;;;3.20;;
21721;SDS011;11023;48.274;7.794;2023-09-12T00:46:02;6.32;;;3.42;;
21721;SDS011;11023;48.274;7.794;2023-09-12T00:48:27;9.32;;;3.67;;
21721;SDS011;11023;48.274;7.794;2023-09-12T00:50:54;9.32;;;3.08;;
21721;SDS011;11023;48.274;7.794;2023-09-12T00:53:21;7.22;;;3.50;;
21721;SDS011;11023;48.274;7.794;2023-09-12T00:55:49;5.82;;;3.33;;
21721;SDS011;11023;48.274;7.794;2023-09-12T00:58:21;11.48;;;3.60;;
21721;SDS011;11023;48.274;7.794;2023-09-12T01:00:47;10.38;;;3.70;;
21721;SDS011;11023;48.274;7.794;2023-09-12T01:03:13;5.25;;;3.15;;
21721;SDS011;11023;48.274;7.794;2023-09-12T01:05:40;5.90;;;3.42;;
21721;SDS011;11023;48.274;7.794;2023-09-12T01:08:07;6.57;;;3.42;;
21721;SDS011;11023;48.274;7.794;2023-09-12T01:10:33;14.00;;;3.72;;
21721;SDS011;11023;48.274;7.794;2023-09-12T01:12:58;5.25;;;3.42;;
21721;SDS011;11023;48.274;7.794;2023-09-12T01:15:24;7.15;;;3.72;;
21721;SDS011;11023;48.274;7.794;2023-09-12T01:17:50;5.93;;;3.38;;
21721;SDS011;11023;48.274;7.794;2023-09-12T01:20:18;10.60;;;3.40;;
21721;SDS011;11023;48.274;7.794;2023-09-12T01:23:00;9.45;;;4.18;;
21721;SDS011;11023;48.274;7.794;2023-09-12T01:28:05;7.05;;;3.78;;
21721;SDS011;11023;48.274;7.794;2023-09-12T01:30:35;10.52;;;3.65;;
21721;SDS011;11023;48.274;7.794;2023-09-12T01:33:01;5.72;;;3.60;;
21721;SDS011;11023;48.274;7.794;2023-09-12T01:35:27;6.45;;;3.63;;
21721;SDS011;11023;48.274;7.794;2023-09-12T01:37:53;6.43;;;3.67;;
21721;SDS011;11023;48.274;7.794;2023-09-12T01:40:21;7.68;;;3.83;;
21721;SDS011;11023;48.274;7.794;2023-09-12T01:42:57;5.93;;;3.42;;
21721;SDS011;11023;48.274;7.794;2023-09-12T01:45:24;9.73;;;4.00;;
21721;SDS011;11023;48.274;7.794;2023-09-12T01:47:51;7.22;;;3.75;;
21721;SDS011;11023;48.274;7.794;2023-09-12T01:50:17;6.95;;;3.17;;
21721;SDS011;11023;48.274;7.794;2023-09-12T01:52:44;5.40;;;3.10;;
21721;SDS011;11023;48.274;7.794;2023-09-12T01:55:10;6.38;;;3.70;;
21721;SDS011;11023;48.274;7.794;2023-09-12T01:57:36;5.57;;;3.22;;
21721;SDS011;11023;48.274;7.794;2023-09-12T02:00:03;5.30;;;3.50;;
21721;SDS011;11023;48.274;7.794;2023-09-12T02:02:29;5.93;;;4.00;;
21721;SDS011;11023;48.274;7.794;2023-09-12T02:07:29;7.93;;;4.00;;
21721;SDS011;11023;48.274;7.794;2023-09-12T02:09:58;5.60;;;3.63;;
21721;SDS011;11023;48.274;7.794;2023-09-12T02:12:25;7.72;;;4.38;;
21721;SDS011;11023;48.274;7.794;2023-09-12T02:14:51;8.70;;;3.30;;
21721;SDS011;11023;48.274;7.794;2023-09-12T02:17:16;8.73;;;4.03;;
21721;SDS011;11023;48.274;7.794;2023-09-12T02:19:42;6.13;;;3.63;;
21721;SDS011;11023;48.274;7.794;2023-09-12T02:22:08;9.68;;;3.60;;
21721;SDS011;11023;48.274;7.794;2023-09-12T02:24:36;6.90;;;3.90;;
21721;SDS011;11023;48.274;7.794;2023-09-12T02:27:02;6.40;;;3.75;;
21721;SDS011;11023;48.274;7.794;2023-09-12T02:29:28;7.18;;;3.63;;
21721;SDS011;11023;48.274;7.794;2023-09-12T02:31:55;8.20;;;4.00;;
21721;SDS011;11023;48.274;7.794;2023-09-12T02:34:21;8.73;;;4.10;;
21721;SDS011;11023;48.274;7.794;2023-09-12T02:36:46;5.30;;;3.33;;
21721;SDS011;11023;48.274;7.794;2023-09-12T02:39:12;9.60;;;3.83;;
21721;SDS011;11023;48.274;7.794;2023-09-12T02:41:38;6.65;;;3.75;;
21721;SDS011;11023;48.274;7.794;2023-09-12T02:44:03;4.72;;;3.08;;
21721;SDS011;11023;48.274;7.794;2023-09-12T02:46:29;5.88;;;3.85;;
21721;SDS011;11023;48.274;7.794;2023-09-12T02:48:55;6.18;;;3.90;;
21721;SDS011;11023;48.274;7.794;2023-09-12T02:51:21;5.72;;;3.53;;
21721;SDS011;11023;48.274;7.794;2023-09-12T02:53:47;7.57;;;3.67;;
21721;SDS011;11023;48.274;7.794;2023-09-12T02:56:12;8.07;;;4.10;;
21721;SDS011;11023;48.274;7.794;2023-09-12T02:58:38;6.55;;;3.78;;
21721;SDS011;11023;48.274;7.794;2023-09-12T03:01:03;9.57;;;3.78;;
21721;SDS011;11023;48.274;7.794;2023-09-12T03:03:31;10.98;;;4.20;;
21721;SDS011;11023;48.274;7.794;2023-09-12T03:05:59;9.73;;;3.75;;
21721;SDS011;11023;48.274;7.794;2023-09-12T03:08:25;6.70;;;3.58;;
21721;SDS011;11023;48.274;7.794;2023-09-12T03:10:54;6.57;;;4.10;;
21721;SDS011;11023;48.274;7.794;2023-09-12T03:13:21;5.95;;;3.50;;
21721;SDS011;11023;48.274;7.794;2023-09-12T03:15:48;6.47;;;3.45;;
21721;SDS011;11023;48.274;7.794;2023-09-12T03:18:14;6.45;;;3.67;;
21721;SDS011;11023;48.274;7.794;2023-09-12T03:20:40;4.47;;;3.05;;
21721;SDS011;11023;48.274;7.794;2023-09-12T03:23:06;6.57;;;3.55;;
21721;SDS011;11023;48.274;7.794;2023-09-12T03:25:35;8.88;;;3.40;;
21721;SDS011;11023;48.274;7.794;2023-09-12T03:28:02;6.88;;;4.00;;
21721;SDS011;11023;48.274;7.794;2023-09-12T03:30:28;6.30;;;3.95;;
21721;SDS011;11023;48.274;7.794;2023-09-12T03:32:53;9.27;;;4.10;;
21721;SDS011;11023;48.274;7.794;2023-09-12T03:35:19;11.00;;;4.18;;
21721;SDS011;11023;48.274;7.794;2023-09-12T03:37:44;5.60;;;3.22;;
21721;SDS011;11023;48.274;7.794;2023-09-12T03:40:10;7.57;;;3.25;;
21721;SDS011;11023;48.274;7.794;2023-09-12T03:42:36;4.40;;;2.88;;
21721;SDS011;11023;48.274;7.794;2023-09-12T03:45:02;9.85;;;3.88;;
21721;SDS011;11023;48.274;7.794;2023-09-12T03:47:28;5.40;;;3.50;;
21721;SDS011;11023;48.274;7.794;2023-09-12T03:49:54;5.50;;;3.70;;
21721;SDS011;11023;48.274;7.794;2023-09-12T03:52:19;7.68;;;3.80;;
21721;SDS011;11023;48.274;7.794;2023-09-12T03:54:45;8.10;;;3.78;;
21721;SDS011;11023;48.274;7.794;2023-09-12T03:57:11;7.00;;;3.83;;
21721;SDS011;11023;48.274;7.794;2023-09-12T03:59:36;7.95;;;3.85;;
21721;SDS011;11023;48.274;7.794;2023-09-12T04:02:03;7.30;;;3.97;;
21721;SDS011;11023;48.274;7.794;2023-09-12T04:04:28;7.28;;;3.80;;
21721;SDS011;11023;48.274;7.794;2023-09-12T04:06:54;7.68;;;3.92;;
21721;SDS011;11023;48.274;7.794;2023-09-12T04:09:20;7.25;;;3.28;;
21721;SDS011;11023;48.274;7.794;2023-09-12T04:11:46;5.65;;;3.58;;
21721;SDS011;11023;48.274;7.794;2023-09-12T04:14:12;7.40;;;3.95;;
21721;SDS011;11023;48.274;7.794;2023-09-12T04:16:41;12.27;;;4.68;;
21721;SDS011;11023;48.274;7.794;2023-09-12T04:19:06;7.05;;;4.10;;
21721;SDS011;11023;48.274;7.794;2023-09-12T04:21:32;7.45;;;3.65;;
21721;SDS011;11023;48.274;7.794;2023-09-12T04:23:58;7.45;;;4.22;;
21721;SDS011;11023;48.274;7.794;2023-09-12T04:26:24;7.50;;;4.05;;
21721;SDS011;11023;48.274;7.794;2023-09-12T04:28:49;6.97;;;3.47;;
21721;SDS011;11023;48.274;7.794;2023-09-12T04:31:16;8.10;;;4.10;;
21721;SDS011;11023;48.274;7.794;2023-09-12T04:33:41;7.10;;;4.20;;
21721;SDS011;11023;48.274;7.794;2023-09-12T04:36:07;9.23;;;4.57;;
21721;SDS011;11023;48.274;7.794;2023-09-12T04:38:32;7.20;;;3.53;;
21721;SDS011;11023;48.274;7.794;2023-09-12T04:41:00;7.53;;;4.50;;
21721;SDS011;11023;48.274;7.794;2023-09-12T04:43:29;6.50;;;4.15;;
21721;SDS011;11023;48.274;7.794;2023-09-12T04:45:56;8.20;;;4.18;;
21721;SDS011;11023;48.274;7.794;2023-09-12T04:48:21;6.95;;;3.88;;
21721;SDS011;11023;48.274;7.794;2023-09-12T04:50:48;9.07;;;4.20;;
21721;SDS011;11023;48.274;7.794;2023-09-12T04:53:13;7.55;;;4.55;;
21721;SDS011;11023;48.274;7.794;2023-09-12T04:55:39;7.70;;;3.97;;
21721;SDS011;11023;48.274;7.794;2023-09-12T04:58:05;6.15;;;3.50;;
21721;SDS011;11023;48.274;7.794;2023-09-12T05:00:32;7.45;;;4.47;;
21721;SDS011;11023;48.274;7.794;2023-09-12T05:02:58;7.65;;;4.30;;
21721;SDS011;11023;48.274;7.794;2023-09-12T05:05:24;6.80;;;4.03;;
21721;SDS011;11023;48.274;7.794;2023-09-12T05:07:50;10.20;;;4.38;;
21721;SDS011;11023;48.274;7.794;2023-09-12T05:10:16;10.48;;;3.88;;
21721;SDS011;11023;48.274;7.794;2023-09-12T05:12:43;9.00;;;3.78;;
21721;SDS011;11023;48.274;7.794;2023-09-12T05:15:08;9.40;;;4.38;;
21721;SDS011;11023;48.274;7.794;2023-09-12T05:17:34;6.78;;;3.95;;
21721;SDS011;11023;48.274;7.794;2023-09-12T05:20:00;4.70;;;3.28;;
21721;SDS011;11023;48.274;7.794;2023-09-12T05:22:25;6.38;;;3.92;;
21721;SDS011;11023;48.274;7.794;2023-09-12T05:24:52;7.47;;;3.80;;
21721;SDS011;11023;48.274;7.794;2023-09-12T05:27:18;6.15;;;4.05;;
21721;SDS011;11023;48.274;7.794;2023-09-12T05:29:43;7.55;;;3.92;;
21721;SDS011;11023;48.274;7.794;2023-09-12T05:32:09;7.70;;;4.40;;
21721;SDS011;11023;48.274;7.794;2023-09-12T05:34:34;7.60;;;4.25;;
21721;SDS011;11023;48.274;7.794;2023-09-12T05:37:00;5.68;;;3.50;;
21721;SDS011;11023;48.274;7.794;2023-09-12T05:39:26;9.82;;;4.15;;
21721;SDS011;11023;48.274;7.794;2023-09-12T05:41:51;7.85;;;3.92;;
21721;SDS011;11023;48.274;7.794;2023-09-12T05:44:17;9.48;;;4.57;;
21721;SDS011;11023;48.274;7.794;2023-09-12T05:46:47;6.50;;;4.25;;
21721;SDS011;11023;48.274;7.794;2023-09-12T05:49:13;6.88;;;4.13;;
21721;SDS011;11023;48.274;7.794;2023-09-12T05:51:40;9.32;;;4.35;;
21721;SDS011;11023;48.274;7.794;2023-09-12T05:54:07;6.28;;;3.95;;
21721;SDS011;11023;48.274;7.794;2023-09-12T05:56:33;12.00;;;4.57;;
21721;SDS011;11023;48.274;7.794;2023-09-12T05:58:59;8.02;;;4.60;;
21721;SDS011;11023;48.274;7.794;2023-09-12T06:01:25;11.00;;;4.65;;
21721;SDS011;11023;48.274;7.794;2023-09-12T06:03:51;11.30;;;4.88;;
21721;SDS011;11023;48.274;7.794;2023-09-12T06:06:16;12.52;;;5.65;;
21721;SDS011;11023;48.274;7.794;2023-09-12T06:08:42;8.02;;;5.15;;
21721;SDS011;11023;48.274;7.794;2023-09-12T06:11:08;13.35;;;6.60;;
21721;SDS011;11023;48.274;7.794;2023-09-12T06:13:34;11.88;;;5.00;;
21721;SDS011;11023;48.274;7.794;2023-09-12T06:16:02;10.95;;;5.53;;
21721;SDS011;11023;48.274;7.794;2023-09-12T06:18:28;11.05;;;4.80;;
21721;SDS011;11023;48.274;7.794;2023-09-12T06:20:56;17.75;;;4.97;;
21721;SDS011;11023;48.274;7.794;2023-09-12T06:23:22;12.95;;;4.70;;
21721;SDS011;11023;48.274;7.794;2023-09-12T06:25:48;9.85;;;4.88;;
21721;SDS011;11023;48.274;7.794;2023-09-12T06:28:23;8.60;;;5.05;;
21721;SDS011;11023;48.274;7.794;2023-09-12T06:30:50;12.18;;;4.60;;
21721;SDS011;11023;48.274;7.794;2023-09-12T06:33:16;8.55;;;4.57;;
21721;SDS011;11023;48.274;7.794;2023-09-12T06:35:41;6.95;;;4.03;;
21721;SDS011;11023;48.274;7.794;2023-09-12T06:38:07;8.70;;;4.20;;
21721;SDS011;11023;48.274;7.794;2023-09-12T06:40:33;7.82;;;4.00;;
21721;SDS011;11023;48.274;7.794;2023-09-12T06:42:58;9.30;;;4.43;;
21721;SDS011;11023;48.274;7.794;2023-09-12T06:45:24;8.98;;;4.60;;
21721;SDS011;11023;48.274;7.794;2023-09-12T06:47:50;11.82;;;5.00;;
21721;SDS011;11023;48.274;7.794;2023-09-12T06:50:18;12.05;;;5.28;;
21721;SDS011;11023;48.274;7.794;2023-09-12T06:52:44;7.68;;;4.05;;
21721;SDS011;11023;48.274;7.794;2023-09-12T06:55:10;8.85;;;4.70;;
21721;SDS011;11023;48.274;7.794;2023-09-12T06:57:35;7.50;;;4.70;;
21721;SDS011;11023;48.274;7.794;2023-09-12T07:00:01;8.02;;;4.03;;
21721;SDS011;11023;48.274;7.794;2023-09-12T07:02:31;11.05;;;4.47;;
21721;SDS011;11023;48.274;7.794;2023-09-12T07:04:57;8.60;;;4.00;;
21721;SDS011;11023;48.274;7.794;2023-09-12T07:07:23;7.93;;;3.80;;
21721;SDS011;11023;48.274;7.794;2023-09-12T07:09:49;5.63;;;3.65;;
21721;SDS011;11023;48.274;7.794;2023-09-12T07:12:15;9.48;;;4.28;;
21721;SDS011;11023;48.274;7.794;2023-09-12T07:14:40;6.43;;;4.05;;
21721;SDS011;11023;48.274;7.794;2023-09-12T07:17:06;5.70;;;3.22;;
21721;SDS011;11023;48.274;7.794;2023-09-12T07:19:32;8.93;;;3.85;;
21721;SDS011;11023;48.274;7.794;2023-09-12T07:21:58;7.00;;;4.05;;
21721;SDS011;11023;48.274;7.794;2023-09-12T07:24:27;9.20;;;4.13;;
21721;SDS011;11023;48.274;7.794;2023-09-12T07:26:52;8.63;;;4.07;;
21721;SDS011;11023;48.274;7.794;2023-09-12T07:29:18;8.18;;;4.38;;
21721;SDS011;11023;48.274;7.794;2023-09-12T07:31:44;14.75;;;5.40;;
21721;SDS011;11023;48.274;7.794;2023-09-12T07:34:10;13.60;;;4.68;;
21721;SDS011;11023;48.274;7.794;2023-09-12T07:36:37;9.30;;;4.75;;
21721;SDS011;11023;48.274;7.794;2023-09-12T07:39:03;13.00;;;4.80;;
21721;SDS011;11023;48.274;7.794;2023-09-12T07:41:29;7.18;;;4.22;;
21721;SDS011;11023;48.274;7.794;2023-09-12T07:43:55;6.90;;;4.57;;
21721;SDS011;11023;48.274;7.794;2023-09-12T07:46:20;6.72;;;3.88;;
21721;SDS011;11023;48.274;7.794;2023-09-12T07:48:46;7.70;;;4.47;;
21721;SDS011;11023;48.274;7.794;2023-09-12T07:51:15;9.35;;;5.03;;
21721;SDS011;11023;48.274;7.794;2023-09-12T07:53:43;10.63;;;4.80;;
21721;SDS011;11023;48.274;7.794;2023-09-12T07:56:09;9.98;;;4.68;;
21721;SDS011;11023;48.274;7.794;2023-09-12T07:58:37;8.07;;;3.90;;
21721;SDS011;11023;48.274;7.794;2023-09-12T08:01:07;8.80;;;4.82;;
21721;SDS011;11023;48.274;7.794;2023-09-12T08:03:34;8.68;;;4.15;;
21721;SDS011;11023;48.274;7.794;2023-09-12T08:06:00;6.72;;;4.15;;
21721;SDS011;11023;48.274;7.794;2023-09-12T08:08:26;7.90;;;4.47;;
21721;SDS011;11023;48.274;7.794;2023-09-12T08:10:51;8.65;;;4.32;;
21721;SDS011;11023;48.274;7.794;2023-09-12T08:13:17;9.45;;;4.80;;
21721;SDS011;11023;48.274;7.794;2023-09-12T08:15:43;9.73;;;4.18;;
21721;SDS011;11023;48.274;7.794;2023-09-12T08:18:08;11.88;;;4.22;;
21721;SDS011;11023;48.274;7.794;2023-09-12T08:20:35;6.57;;;4.18;;
21721;SDS011;11023;48.274;7.794;2023-09-12T08:23:00;8.85;;;4.82;;
21721;SDS011;11023;48.274;7.794;2023-09-12T08:25:26;9.55;;;5.00;;
21721;SDS011;11023;48.274;7.794;2023-09-12T08:27:52;10.80;;;5.68;;
21721;SDS011;11023;48.274;7.794;2023-09-12T08:30:17;10.38;;;5.05;;
21721;SDS011;11023;48.274;7.794;2023-09-12T08:32:43;7.38;;;4.35;;
21721;SDS011;11023;48.274;7.794;2023-09-12T08:35:09;10.25;;;4.57;;
21721;SDS011;11023;48.274;7.794;2023-09-12T08:37:37;9.15;;;5.40;;
21721;SDS011;11023;48.274;7.794;2023-09-12T08:40:03;7.70;;;4.43;;
21721;SDS011;11023;48.274;7.794;2023-09-12T08:42:32;12.98;;;4.75;;
21721;SDS011;11023;48.274;7.794;2023-09-12T08:45:03;10.90;;;4.63;;
21721;SDS011;11023;48.274;7.794;2023-09-12T08:47:30;9.10;;;4.15;;
21721;SDS011;11023;48.274;7.794;2023-09-12T08:49:57;10.32;;;4.80;;
21721;SDS011;11023;48.274;7.794;2023-09-12T08:52:24;7.63;;;4.70;;
21721;SDS011;11023;48.274;7.794;2023-09-12T08:54:50;6.05;;;4.03;;
21721;SDS011;11023;48.274;7.794;2023-09-12T08:57:16;7.85;;;4.30;;
21721;SDS011;11023;48.274;7.794;2023-09-12T08:59:42;8.38;;;5.05;;
21721;SDS011;11023;48.274;7.794;2023-09-12T09:02:09;7.68;;;4.60;;
21721;SDS011;11023;48.274;7.794;2023-09-12T09:04:35;7.72;;;3.92;;
21721;SDS011;11023;48.274;7.794;2023-09-12T09:07:03;8.48;;;4.32;;
21721;SDS011;11023;48.274;7.794;2023-09-12T09:09:29;9.75;;;4.38;;
21721;SDS011;11023;48.274;7.794;2023-09-12T09:11:55;9.55;;;4.68;;
21721;SDS011;11023;48.274;7.794;2023-09-12T09:14:21;7.20;;;4.53;;
21721;SDS011;11023;48.274;7.794;2023-09-12T09:16:47;8.02;;;4.30;;
21721;SDS011;11023;48.274;7.794;2023-09-12T09:19:13;8.65;;;3.80;;
21721;SDS011;11023;48.274;7.794;2023-09-12T09:21:40;8.70;;;4.25;;
21721;SDS011;11023;48.274;7.794;2023-09-12T09:24:10;6.78;;;4.70;;
21721;SDS011;11023;48.274;7.794;2023-09-12T09:29:20;8.45;;;4.82;;
21721;SDS011;11023;48.274;7.794;2023-09-12T09:31:47;8.10;;;4.68;;
21721;SDS011;11023;48.274;7.794;2023-09-12T09:34:15;7.10;;;3.80;;
21721;SDS011;11023;48.274;7.794;2023-09-12T09:36:43;7.93;;;3.97;;
21721;SDS011;11023;48.274;7.794;2023-09-12T09:39:09;6.28;;;3.80;;
21721;SDS011;11023;48.274;7.794;2023-09-12T09:41:36;8.00;;;4.07;;
21721;SDS011;11023;48.274;7.794;2023-09-12T09:44:04;7.22;;;4.05;;
21721;SDS011;11023;48.274;7.794;2023-09-12T09:46:31;10.70;;;4.30;;
21721;SDS011;11023;48.274;7.794;2023-09-12T09:48:57;5.88;;;4.00;;
21721;SDS011;11023;48.274;7.794;2023-09-12T09:51:24;7.78;;;4.22;;
21721;SDS011;11023;48.274;7.794;2023-09-12T09:53:53;9.52;;;3.80;;
21721;SDS011;11023;48.274;7.794;2023-09-12T09:56:23;6.63;;;3.33;;
21721;SDS011;11023;48.274;7.794;2023-09-12T09:58:56;6.60;;;4.05;;
21721;SDS011;11023;48.274;7.794;2023-09-12T10:01:22;7.03;;;3.83;;
21721;SDS011;11023;48.274;7.794;2023-09-12T10:03:52;5.60;;;3.00;;
21721;SDS011;11023;48.274;7.794;2023-09-12T10:06:22;5.50;;;3.55;;
21721;SDS011;11023;48.274;7.794;2023-09-12T10:08:52;5.97;;;4.05;;
21721;SDS011;11023;48.274;7.794;2023-09-12T10:11:21;8.93;;;3.90;;
21721;SDS011;11023;48.274;7.794;2023-09-12T10:13:57;5.93;;;3.97;;
21721;SDS011;11023;48.274;7.794;2023-09-12T10:16:28;7.13;;;3.75;;
21721;SDS011;11023;48.274;7.794;2023-09-12T10:18:59;8.30;;;3.97;;
21721;SDS011;11023;48.274;7.794;2023-09-12T10:24:25;5.85;;;3.78;;
21721;SDS011;11023;48.274;7.794;2023-09-12T10:26:52;7.05;;;3.72;;
21721;SDS011;11023;48.274;7.794;2023-09-12T10:29:20;7.20;;;3.78;;
21721;SDS011;11023;48.274;7.794;2023-09-12T10:31:47;4.78;;;3.50;;
21721;SDS011;11023;48.274;7.794;2023-09-12T10:34:14;6.63;;;3.78;;
21721;SDS011;11023;48.274;7.794;2023-09-12T10:36:40;5.50;;;3.95;;
21721;SDS011;11023;48.274;7.794;2023-09-12T10:39:07;6.13;;;3.60;;
21721;SDS011;11023;48.274;7.794;2023-09-12T10:41:38;6.25;;;4.30;;
21721;SDS011;11023;48.274;7.794;2023-09-12T10:44:09;5.35;;;3.60;;
21721;SDS011;11023;48.274;7.794;2023-09-12T10:46:39;5.03;;;3.50;;
21721;SDS011;11023;48.274;7.794;2023-09-12T10:49:09;6.50;;;3.67;;
21721;SDS011;11023;48.274;7.794;2023-09-12T10:51:43;4.30;;;3.20;;
21721;SDS011;11023;48.274;7.794;2023-09-12T10:54:13;6.93;;;4.03;;
21721;SDS011;11023;48.274;7.794;2023-09-12T10:56:41;7.80;;;3.80;;
21721;SDS011;11023;48.274;7.794;2023-09-12T11:01:34;6.47;;;3.70;;
21721;SDS011;11023;48.274;7.794;2023-09-12T11:04:29;5.18;;;3.42;;
21721;SDS011;11023;48.274;7.794;2023-09-12T11:06:52;6.03;;;3.90;;
21721;SDS011;11023;48.274;7.794;2023-09-12T11:09:22;4.45;;;3.33;;
21721;SDS011;11023;48.274;7.794;2023-09-12T11:11:49;5.13;;;3.60;;
21721;SDS011;11023;48.274;7.794;2023-09-12T11:14:24;7.13;;;3.33;;
21721;SDS011;11023;48.274;7.794;2023-09-12T11:17:19;6.25;;;3.70;;
21721;SDS011;11023;48.274;7.794;2023-09-12T11:19:47;7.28;;;3.67;;
21721;SDS011;11023;48.274;7.794;2023-09-12T11:22:29;6.53;;;3.65;;
21721;SDS011;11023;48.274;7.794;2023-09-12T11:25:03;5.43;;;3.60;;
21721;SDS011;11023;48.274;7.794;2023-09-12T11:28:15;6.25;;;3.85;;
21721;SDS011;11023;48.274;7.794;2023-09-12T11:30:17;7.68;;;3.72;;
21721;SDS011;11023;48.274;7.794;2023-09-12T11:32:43;6.05;;;3.90;;
21721;SDS011;11023;48.274;7.794;2023-09-12T11:35:13;6.85;;;3.25;;
21721;SDS011;11023;48.274;7.794;2023-09-12T11:37:40;7.95;;;3.80;;
21721;SDS011;11023;48.274;7.794;2023-09-12T11:42:39;8.65;;;3.50;;
21721;SDS011;11023;48.274;7.794;2023-09-12T11:45:10;6.80;;;3.97;;
21721;SDS011;11023;48.274;7.794;2023-09-12T11:47:42;6.28;;;3.42;;
21721;SDS011;11023;48.274;7.794;2023-09-12T11:50:09;4.32;;;3.03;;
21721;SDS011;11023;48.274;7.794;2023-09-12T11:53:08;5.90;;;3.58;;
21721;SDS011;11023;48.274;7.794;2023-09-12T11:55:36;5.47;;;3.50;;
21721;SDS011;11023;48.274;7.794;2023-09-12T11:58:12;6.20;;;3.58;;
21721;SDS011;11023;48.274;7.794;2023-09-12T12:00:44;6.68;;;3.05;;
21721;SDS011;11023;48.274;7.794;2023-09-12T12:03:15;8.73;;;3.60;;
21721;SDS011;11023;48.274;7.794;2023-09-12T12:05:42;5.57;;;3.53;;
21721;SDS011;11023;48.274;7.794;2023-09-12T12:08:08;4.45;;;3.67;;
21721;SDS011;11023;48.274;7.794;2023-09-12T12:10:35;7.30;;;3.22;;
21721;SDS011;11023;48.274;7.794;2023-09-12T12:13:03;4.63;;;3.10;;
21721;SDS011;11023;48.274;7.794;2023-09-12T12:15:28;3.95;;;3.00;;
21721;SDS011;11023;48.274;7.794;2023-09-12T12:17:57;5.43;;;3.00;;
21721;SDS011;11023;48.274;7.794;2023-09-12T12:20:23;6.90;;;3.35;;
21721;SDS011;11023;48.274;7.794;2023-09-12T12:22:49;5.82;;;3.47;;
21721;SDS011;11023;48.274;7.794;2023-09-12T12:25:18;4.47;;;3.00;;
21721;SDS011;11023;48.274;7.794;2023-09-12T12:27:43;4.88;;;3.03;;
21721;SDS011;11023;48.274;7.794;2023-09-12T12:30:10;4.60;;;3.05;;
21721;SDS011;11023;48.274;7.794;2023-09-12T12:32:40;3.35;;;2.90;;
21721;SDS011;11023;48.274;7.794;2023-09-12T12:35:07;5.60;;;3.05;;
21721;SDS011;11023;48.274;7.794;2023-09-12T12:37:33;8.35;;;4.20;;
21721;SDS011;11023;48.274;7.794;2023-09-12T12:40:01;4.70;;;3.45;;
21721;SDS011;11023;48.274;7.794;2023-09-12T12:42:35;5.75;;;3.25;;
21721;SDS011;11023;48.274;7.794;2023-09-12T12:45:10;3.97;;;2.80;;
21721;SDS011;11023;48.274;7.794;2023-09-12T12:47:44;3.50;;;2.92;;
21721;SDS011;11023;48.274;7.794;2023-09-12T12:50:16;3.95;;;2.90;;
21721;SDS011;11023;48.274;7.794;2023-09-12T12:52:47;5.07;;;2.88;;
21721;SDS011;11023;48.274;7.794;2023-09-12T12:55:13;4.25;;;2.70;;
21721;SDS011;11023;48.274;7.794;2023-09-12T12:57:40;3.90;;;2.60;;
21721;SDS011;11023;48.274;7.794;2023-09-12T13:02:36;2.40;;;2.15;;
21721;SDS011;11023;48.274;7.794;2023-09-12T13:05:06;3.63;;;2.58;;
21721;SDS011;11023;48.274;7.794;2023-09-12T13:07:44;6.50;;;3.17;;
21721;SDS011;11023;48.274;7.794;2023-09-12T13:10:10;3.72;;;2.67;;
21721;SDS011;11023;48.274;7.794;2023-09-12T13:12:36;3.97;;;2.92;;
21721;SDS011;11023;48.274;7.794;2023-09-12T13:15:03;5.40;;;2.92;;
21721;SDS011;11023;48.274;7.794;2023-09-12T13:17:29;4.50;;;3.10;;
21721;SDS011;11023;48.274;7.794;2023-09-12T13:19:55;3.97;;;3.03;;
21721;SDS011;11023;48.274;7.794;2023-09-12T13:22:21;4.25;;;2.70;;
21721;SDS011;11023;48.274;7.794;2023-09-12T13:24:47;5.20;;;2.95;;
21721;SDS011;11023;48.274;7.794;2023-09-12T13:27:13;4.25;;;2.83;;
21721;SDS011;11023;48.274;7.794;2023-09-12T13:29:39;3.75;;;3.13;;
21721;SDS011;11023;48.274;7.794;2023-09-12T13:32:04;5.93;;;3.08;;
21721;SDS011;11023;48.274;7.794;2023-09-12T13:34:30;3.10;;;2.72;;
21721;SDS011;11023;48.274;7.794;2023-09-12T13:36:56;4.32;;;3.25;;
21721;SDS011;11023;48.274;7.794;2023-09-12T13:39:23;5.07;;;3.55;;
21721;SDS011;11023;48.274;7.794;2023-09-12T13:41:49;3.05;;;2.70;;
21721;SDS011;11023;48.274;7.794;2023-09-12T13:44:15;3.47;;;2.58;;
21721;SDS011;11023;48.274;7.794;2023-09-12T13:46:41;5.45;;;3.00;;
21721;SDS011;11023;48.274;7.794;2023-09-12T13:49:09;4.10;;;3.17;;
21721;SDS011;11023;48.274;7.794;2023-09-12T13:51:37;5.28;;;2.97;;
21721;SDS011;11023;48.274;7.794;2023-09-12T13:54:03;4.25;;;3.13;;
21721;SDS011;11023;48.274;7.794;2023-09-12T13:56:29;4.25;;;3.15;;
21721;SDS011;11023;48.274;7.794;2023-09-12T13:58:55;4.18;;;2.90;;
21721;SDS011;11023;48.274;7.794;2023-09-12T14:01:20;5.97;;;2.88;;
21721;SDS011;11023;48.274;7.794;2023-09-12T14:03:48;4.20;;;3.03;;
21721;SDS011;11023;48.274;7.794;2023-09-12T14:06:13;5.45;;;2.47;;
21721;SDS011;11023;48.274;7.794;2023-09-12T14:08:39;5.03;;;2.65;;
21721;SDS011;11023;48.274;7.794;2023-09-12T14:11:05;3.35;;;2.85;;
21721;SDS011;11023;48.274;7.794;2023-09-12T14:13:30;2.40;;;1.77;;
21721;SDS011;11023;48.274;7.794;2023-09-12T14:15:56;2.38;;;1.52;;
21721;SDS011;11023;48.274;7.794;2023-09-12T14:18:21;2.78;;;1.63;;
21721;SDS011;11023;48.274;7.794;2023-09-12T14:20:47;1.45;;;1.33;;
21721;SDS011;11023;48.274;7.794;2023-09-12T14:23:13;9.13;;;1.85;;
21721;SDS011;11023;48.274;7.794;2023-09-12T14:25:38;1.85;;;1.60;;
21721;SDS011;11023;48.274;7.794;2023-09-12T14:28:04;3.38;;;2.25;;
21721;SDS011;11023;48.274;7.794;2023-09-12T14:30:30;2.47;;;1.55;;
21721;SDS011;11023;48.274;7.794;2023-09-12T14:33:01;1.95;;;1.70;;
21721;SDS011;11023;48.274;7.794;2023-09-12T14:35:28;1.60;;;1.50;;
21721;SDS011;11023;48.274;7.794;2023-09-12T14:37:54;2.38;;;1.77;;
21721;SDS011;11023;48.274;7.794;2023-09-12T14:40:20;3.00;;;1.95;;
21721;SDS011;11023;48.274;7.794;2023-09-12T14:42:45;2.95;;;2.10;;
21721;SDS011;11023;48.274;7.794;2023-09-12T14:45:11;5.63;;;1.80;;
21721;SDS011;11023;48.274;7.794;2023-09-12T14:47:39;3.60;;;1.70;;
21721;SDS011;11023;48.274;7.794;2023-09-12T14:50:05;3.22;;;2.05;;
21721;SDS011;11023;48.274;7.794;2023-09-12T14:52:30;1.73;;;1.52;;
21721;SDS011;11023;48.274;7.794;2023-09-12T14:54:56;2.42;;;2.08;;
21721;SDS011;11023;48.274;7.794;2023-09-12T14:57:23;3.78;;;1.83;;
21721;SDS011;11023;48.274;7.794;2023-09-12T14:59:50;2.08;;;1.88;;
21721;SDS011;11023;48.274;7.794;2023-09-12T15:02:16;2.60;;;1.73;;
21721;SDS011;11023;48.274;7.794;2023-09-12T15:04:42;4.82;;;1.65;;